Time;durP1;ratioP1;P1;durP2;ratioP2;P2;SDS_P1;SDS_P2;PMS_P1;PMS_P2;Temp;Humidity;BMP_temperature;BMP_pressure;BME280_temperature;BME280_humidity;BME280_pressure;Samples;Min_cycle;Max_cycle;Signal;HPM_P1;HPM_P2
2022/10/04 00:01:04;;;;;;;10.03;6.70;;;;;;;9.40;92.82;101088.13;5120145;28;20971;-64
2022/10/04 00:03:34;;;;;;;6.37;5.67;;;;;;;9.45;92.89;101074.44;5121201;28;20976;-65
2022/10/04 00:06:02;;;;;;;11.20;5.67;;;;;;;9.54;92.56;101065.75;5120231;28;20552;-65
2022/10/04 00:08:33;;;;;;;9.77;6.37;;;;;;;9.38;93.09;101062.53;5120803;28;20579;-65
2022/10/04 00:11:05;;;;;;;7.83;6.60;;;;;;;9.54;93.58;101063.06;5119806;28;20467;-65
2022/10/04 00:13:33;;;;;;;11.50;6.60;;;;;;;9.61;93.43;101074.16;5121161;28;20431;-65
2022/10/04 00:16:01;;;;;;;12.07;6.60;;;;;;;9.46;93.20;101089.50;5118746;28;20577;-65
2022/10/04 00:18:30;;;;;;;9.40;6.10;;;;;;;9.14;93.65;101092.69;5119632;28;20476;-64
2022/10/04 00:21:02;;;;;;;10.87;7.23;;;;;;;9.34;92.73;101088.59;5119951;28;20473;-65
2022/10/04 00:23:42;;;;;;;11.17;5.90;;;;;;;9.37;92.29;101085.69;5120441;28;20507;-64
2022/10/04 00:26:14;;;;;;;9.30;6.70;;;;;;;9.39;92.12;101080.22;5119697;28;21076;-65
2022/10/04 00:28:44;;;;;;;7.93;6.20;;;;;;;9.33;91.43;101080.69;5120699;28;21334;-66
2022/10/04 00:31:24;;;;;;;13.17;6.47;;;;;;;9.29;91.66;101080.06;5120611;28;20523;-65
2022/10/04 00:33:54;;;;;;;9.47;6.23;;;;;;;9.31;92.32;101082.63;5080361;28;20450;-66
2022/10/04 00:36:50;;;;;;;10.77;6.07;;;;;;;9.33;92.13;101081.53;5079275;28;20484;-66
2022/10/04 00:39:35;;;;;;;10.47;5.70;;;;;;;9.31;92.13;101070.13;5080485;28;20452;-67
2022/10/04 00:42:19;;;;;;;7.17;6.30;;;;;;;9.21;92.42;101077.94;5089120;28;20494;-65
2022/10/04 00:44:49;;;;;;;8.47;6.23;;;;;;;9.19;92.44;101079.88;5099213;28;20461;-66
2022/10/04 00:47:24;;;;;;;16.47;7.60;;;;;;;9.12;92.52;101075.09;5120082;28;20568;-66
2022/10/04 00:49:55;;;;;;;9.23;7.30;;;;;;;9.16;92.62;101066.75;5119672;28;20474;-67
2022/10/04 00:52:26;;;;;;;10.57;6.50;;;;;;;9.26;92.05;101056.25;5119461;28;20486;-67
2022/10/04 00:54:56;;;;;;;7.73;6.50;;;;;;;9.25;92.12;101051.88;5120376;28;20474;-67
2022/10/04 00:57:27;;;;;;;14.00;6.50;;;;;;;9.23;92.35;101054.69;5119102;28;20479;-67
2022/10/04 00:59:56;;;;;;;10.33;5.80;;;;;;;9.22;92.38;101047.63;5120448;28;20419;-66
2022/10/04 01:02:29;;;;;;;8.20;6.30;;;;;;;9.31;92.26;101050.59;5119216;28;20482;-66
2022/10/04 01:04:59;;;;;;;8.23;6.33;;;;;;;9.28;91.91;101056.16;5120388;28;20484;-66
2022/10/04 01:07:29;;;;;;;8.43;4.90;;;;;;;9.21;91.86;101053.91;5119121;28;20470;-66
2022/10/04 01:09:59;;;;;;;10.77;5.50;;;;;;;9.29;92.10;101052.50;5120255;28;20469;-66
2022/10/04 01:12:33;;;;;;;6.93;5.37;;;;;;;9.30;91.73;101049.72;5107406;28;20488;-66
2022/10/04 01:15:06;;;;;;;7.10;5.50;;;;;;;9.38;91.52;101044.69;5099740;28;20817;-66
2022/10/04 01:17:34;;;;;;;8.10;6.23;;;;;;;9.25;91.76;101038.53;5102846;28;21012;-65
2022/10/04 01:20:01;;;;;;;9.67;5.93;;;;;;;9.36;92.24;101029.75;5100023;28;20490;-65
2022/10/04 01:22:44;;;;;;;8.50;5.87;;;;;;;9.32;91.78;101023.81;5098997;28;20473;-65
2022/10/04 01:25:11;;;;;;;8.97;6.70;;;;;;;9.31;92.14;101029.25;5102278;28;20455;-66
2022/10/04 01:27:41;;;;;;;11.20;6.67;;;;;;;9.35;92.57;101033.38;5105963;28;20486;-65
2022/10/04 01:30:10;;;;;;;9.40;6.03;;;;;;;9.35;92.48;101033.38;5122456;28;20438;-66
2022/10/04 01:32:38;;;;;;;10.40;5.97;;;;;;;9.35;92.41;101023.56;5124053;28;20450;-65
2022/10/04 01:35:05;;;;;;;7.50;6.70;;;;;;;9.41;92.34;101016.94;5123408;28;20574;-66
2022/10/04 01:37:32;;;;;;;8.73;5.90;;;;;;;9.51;92.18;101019.75;5123376;28;20520;-66
2022/10/04 01:40:01;;;;;;;9.93;7.23;;;;;;;9.47;92.65;101021.78;5122524;28;20476;-66
2022/10/04 01:42:32;;;;;;;8.87;6.93;;;;;;;9.41;92.45;101017.78;5122616;28;20594;-66
2022/10/04 01:45:03;;;;;;;10.37;6.43;;;;;;;9.59;91.70;101023.53;5123074;28;20482;-66
2022/10/04 01:47:33;;;;;;;6.53;5.87;;;;;;;9.60;91.42;101021.75;5122689;28;20475;-66
2022/10/04 01:50:04;;;;;;;9.07;5.87;;;;;;;9.53;91.41;101017.81;5122523;28;20438;-66
2022/10/04 01:52:34;;;;;;;8.30;5.17;;;;;;;9.46;91.59;101014.78;5122077;28;20782;-65
2022/10/04 01:55:03;;;;;;;8.60;5.23;;;;;;;9.54;91.80;101007.00;5122618;28;20474;-66
2022/10/04 01:57:34;;;;;;;10.87;5.83;;;;;;;9.52;91.82;101011.63;5122039;28;20516;-65
2022/10/04 02:00:02;;;;;;;9.70;6.47;;;;;;;9.52;91.96;101010.78;5123096;28;20435;-66
2022/10/04 02:02:34;;;;;;;9.80;5.53;;;;;;;9.63;91.41;101004.63;5122554;28;20502;-65
2022/10/04 02:05:02;;;;;;;9.47;5.50;;;;;;;9.42;91.87;100997.25;5122768;28;20470;-66
2022/10/04 02:07:31;;;;;;;10.20;6.07;;;;;;;9.52;91.77;101000.09;5122297;28;20474;-65
2022/10/04 02:09:59;;;;;;;11.93;5.73;;;;;;;9.53;91.90;100993.78;5122812;28;20470;-66
2022/10/04 02:12:30;;;;;;;6.93;6.07;;;;;;;9.51;91.98;100998.38;5122647;28;20495;-65
2022/10/04 02:14:58;;;;;;;11.57;6.80;;;;;;;9.42;92.27;100995.44;5122356;28;20894;-64
2022/10/04 02:17:27;;;;;;;12.93;6.73;;;;;;;9.48;92.61;101001.28;5122321;28;20501;-65
2022/10/04 02:19:54;;;;;;;8.70;6.07;;;;;;;9.53;92.40;100996.44;5122362;28;21127;-65
2022/10/04 02:22:23;;;;;;;9.23;6.10;;;;;;;9.60;92.33;100990.56;5122718;28;20502;-65
2022/10/04 02:24:50;;;;;;;8.70;5.80;;;;;;;9.64;91.81;100988.50;5123084;28;20467;-66
2022/10/04 02:27:17;;;;;;;7.57;6.67;;;;;;;9.64;92.03;100983.16;5121893;28;20510;-65
2022/10/04 02:29:45;;;;;;;8.53;6.37;;;;;;;9.56;91.91;100982.88;5124121;28;20433;-65
2022/10/04 02:34:58;;;;;;;9.10;6.63;;;;;;;9.60;92.15;100971.03;5123644;28;20499;-66
2022/10/04 02:37:27;;;;;;;10.80;6.27;;;;;;;9.60;92.38;100974.53;5121483;28;20617;-66
2022/10/04 02:39:56;;;;;;;9.33;6.43;;;;;;;9.66;92.30;100969.69;5123320;28;20474;-65
2022/10/04 02:42:29;;;;;;;8.40;6.57;;;;;;;9.63;91.89;100975.25;5122389;28;20490;-66
2022/10/04 02:45:00;;;;;;;10.73;7.07;;;;;;;9.50;92.14;100968.19;5123723;28;20477;-65
2022/10/04 02:47:30;;;;;;;9.50;6.67;;;;;;;9.52;92.75;100970.75;5121813;28;20546;-65
2022/10/04 02:49:59;;;;;;;7.83;6.00;;;;;;;9.58;92.19;100963.13;5122440;28;20462;-64
2022/10/04 02:52:29;;;;;;;9.30;6.80;;;;;;;9.54;92.23;100968.81;5121527;28;20474;-65
2022/10/04 02:55:01;;;;;;;9.10;6.73;;;;;;;9.56;92.34;100969.53;5122515;28;20450;-65
2022/10/04 02:57:29;;;;;;;11.43;6.67;;;;;;;9.60;91.86;100966.53;5120749;28;20485;-66
2022/10/04 03:00:10;;;;;;;13.90;7.10;;;;;;;9.63;91.48;100961.91;5122886;28;20504;-65
2022/10/04 03:02:38;;;;;;;7.67;6.87;;;;;;;9.48;91.70;100961.25;5121714;28;20472;-65
2022/10/04 03:05:07;;;;;;;11.93;6.83;;;;;;;9.53;91.83;100964.41;5122060;28;20443;-66
2022/10/04 03:07:35;;;;;;;12.07;7.73;;;;;;;9.50;91.89;100970.84;5121006;28;20600;-66
2022/10/04 03:10:03;;;;;;;12.53;8.37;;;;;;;9.51;91.96;100961.03;5122145;28;20877;-66
2022/10/04 03:12:30;;;;;;;10.57;8.30;;;;;;;9.38;92.37;100964.63;5120670;28;20549;-66
2022/10/04 03:14:57;;;;;;;9.77;7.00;;;;;;;9.50;92.79;100970.00;5122112;28;20455;-66
2022/10/04 03:17:25;;;;;;;10.20;8.00;;;;;;;9.61;92.13;100967.38;5120881;28;20501;-66
2022/10/04 03:19:52;;;;;;;9.10;6.20;;;;;;;9.46;92.42;100963.19;5121928;28;20454;-64
2022/10/04 03:22:19;;;;;;;12.00;7.60;;;;;;;9.50;92.05;100960.19;5120965;28;20482;-65
2022/10/04 03:24:47;;;;;;;10.73;7.97;;;;;;;9.45;92.25;100951.66;5120977;28;20447;-65
2022/10/04 03:27:16;;;;;;;9.37;8.30;;;;;;;9.53;92.24;100951.06;5119922;28;20531;-66
2022/10/04 03:29:43;;;;;;;10.20;7.40;;;;;;;9.54;92.01;100947.44;5121753;28;20459;-64
2022/10/04 03:32:13;;;;;;;10.23;7.13;;;;;;;9.57;91.97;100941.88;5120695;28;20489;-65
2022/10/04 03:34:42;;;;;;;8.83;7.80;;;;;;;9.57;92.16;100936.53;5121521;28;20489;-64
2022/10/04 03:37:13;;;;;;;7.47;6.70;;;;;;;9.51;92.18;100932.53;5120193;28;20479;-65
2022/10/04 03:39:42;;;;;;;12.03;7.90;;;;;;;9.49;92.62;100934.44;5121516;28;20450;-64
2022/10/04 03:42:11;;;;;;;9.50;6.63;;;;;;;9.54;92.77;100939.44;5120626;28;20489;-64
2022/10/04 03:44:38;;;;;;;9.73;7.00;;;;;;;9.59;92.66;100935.44;5121166;28;20453;-64
2022/10/04 03:47:09;;;;;;;7.90;6.63;;;;;;;9.61;92.76;100928.16;5120288;28;20497;-65
2022/10/04 03:49:37;;;;;;;9.90;8.33;;;;;;;9.59;92.79;100927.44;5120741;28;20435;-65
2022/10/04 03:52:08;;;;;;;11.63;8.03;;;;;;;9.62;92.85;100931.69;5120681;28;20482;-64
2022/10/04 03:54:35;;;;;;;11.37;7.80;;;;;;;9.64;93.03;100926.25;5121370;28;20449;-65
2022/10/04 03:57:02;;;;;;;14.30;7.80;;;;;;;9.66;93.00;100932.31;5079317;28;20527;-65
2022/10/04 03:59:29;;;;;;;8.83;7.70;;;;;;;9.68;92.91;100925.88;5099468;28;20466;-65
2022/10/04 04:02:05;;;;;;;11.80;7.50;;;;;;;9.65;92.63;100934.13;5117224;28;20478;-65
2022/10/04 04:04:40;;;;;;;11.60;7.70;;;;;;;9.70;92.87;100923.09;5120014;28;20522;-65
2022/10/04 04:07:12;;;;;;;15.83;8.47;;;;;;;9.72;92.56;100929.16;5115822;28;20503;-65
2022/10/04 04:09:42;;;;;;;11.83;7.63;;;;;;;9.74;92.53;100933.44;5120807;28;20544;-66
2022/10/04 04:12:13;;;;;;;9.13;7.00;;;;;;;9.82;92.56;100929.31;5119778;28;20882;-66
2022/10/04 04:14:41;;;;;;;12.10;10.00;;;;;;;9.82;92.53;100921.28;5120071;28;20486;-66
2022/10/04 04:17:34;;;;;;;9.93;7.87;;;;;;;9.70;92.60;100915.09;5099415;28;20503;-66
2022/10/04 04:20:03;;;;;;;12.33;7.53;;;;;;;9.63;92.87;100906.69;5111212;28;20468;-64
2022/10/04 04:22:31;;;;;;;13.50;8.43;;;;;;;9.61;92.68;100914.81;5120101;28;20827;-65
2022/10/04 04:25:00;;;;;;;11.40;7.90;;;;;;;9.75;92.17;100908.41;5119419;28;20472;-65
2022/10/04 04:27:28;;;;;;;12.00;7.60;;;;;;;9.78;91.97;100913.50;5094644;28;20514;-65
2022/10/04 04:29:55;;;;;;;11.40;7.80;;;;;;;9.79;91.79;100925.91;5103012;28;20462;-66
2022/10/04 04:32:23;;;;;;;9.33;7.70;;;;;;;9.80;91.71;100924.09;5100632;28;20536;-65
2022/10/04 04:34:52;;;;;;;10.90;8.13;;;;;;;9.73;92.01;100920.19;5100994;28;20485;-68
2022/10/04 04:37:19;;;;;;;10.37;6.60;;;;;;;9.77;92.09;100917.19;5101513;28;20489;-67
2022/10/04 04:39:53;;;;;;;9.63;6.80;;;;;;;9.75;91.38;100921.75;5110376;28;20459;-63
2022/10/04 04:42:23;;;;;;;11.30;7.30;;;;;;;9.79;91.36;100919.69;5108004;28;20475;-68
2022/10/04 04:44:52;;;;;;;9.43;6.03;;;;;;;9.78;91.51;100913.50;5118002;28;20451;-68
2022/10/04 04:47:32;;;;;;;11.40;7.50;;;;;;;9.54;92.02;100918.09;5120244;28;20477;-68
2022/10/04 04:50:07;;;;;;;9.67;7.00;;;;;;;9.61;92.04;100927.31;5120971;28;20424;-68
2022/10/04 04:52:34;;;;;;;7.87;6.90;;;;;;;9.64;91.93;100919.09;5118041;28;20439;-68
2022/10/04 04:55:03;;;;;;;12.80;7.80;;;;;;;9.58;92.33;100919.53;5108273;28;20439;-68
2022/10/04 04:57:30;;;;;;;14.43;8.23;;;;;;;9.57;92.43;100929.38;5097280;28;20475;-68
2022/10/04 04:59:58;;;;;;;12.60;8.20;;;;;;;9.57;92.04;100925.88;5107194;28;20500;-68
2022/10/04 05:02:33;;;;;;;16.33;8.43;;;;;;;9.57;92.13;100932.03;5099050;28;20474;-68
2022/10/04 05:05:17;;;;;;;10.87;7.87;;;;;;;9.51;92.35;100929.00;5102564;28;20839;-68
2022/10/04 05:07:44;;;;;;;9.27;7.27;;;;;;;9.48;92.43;100923.88;5100273;28;20463;-68
2022/10/04 05:10:32;;;;;;;14.23;7.40;;;;;;;9.48;92.25;100919.41;5092178;28;20432;-77
2022/10/04 05:12:59;;;;;;;12.83;8.27;;;;;;;9.45;92.49;100911.63;5089259;28;20483;-68
2022/10/04 05:15:27;;;;;;;12.17;8.10;;;;;;;9.53;92.44;100913.69;5090542;28;20459;-71
2022/10/04 05:17:54;;;;;;;11.30;7.70;;;;;;;9.43;92.71;100913.56;5080779;28;20585;-72
2022/10/04 05:20:20;;;;;;;11.50;7.37;;;;;;;9.45;92.68;100905.44;5079730;28;20497;-72
2022/10/04 05:22:49;;;;;;;12.10;8.07;;;;;;;9.40;92.34;100909.31;5078026;28;20449;-71
2022/10/04 05:25:23;;;;;;;13.33;7.70;;;;;;;9.40;93.10;100911.13;5081446;28;20448;-73
2022/10/04 05:27:52;;;;;;;8.23;7.07;;;;;;;9.47;92.82;100915.03;5082670;28;20501;-71
2022/10/04 05:30:31;;;;;;;10.40;7.17;;;;;;;9.48;92.37;100910.53;5081413;28;20543;-72
2022/10/04 05:33:01;;;;;;;10.00;6.57;;;;;;;9.42;92.44;100903.84;5084590;28;20472;-72
2022/10/04 05:35:29;;;;;;;9.57;7.20;;;;;;;9.45;92.78;100910.78;5077838;28;20488;-71
2022/10/04 05:38:01;;;;;;;9.90;6.90;;;;;;;9.39;92.85;100912.97;5072515;28;20506;-72
2022/10/04 05:40:32;;;;;;;11.87;7.90;;;;;;;9.43;92.92;100914.41;5070074;28;20460;-72
2022/10/04 05:43:16;;;;;;;10.63;7.40;;;;;;;9.53;92.94;100917.25;5068104;28;20492;-71
2022/10/04 05:45:43;;;;;;;10.97;7.67;;;;;;;9.53;92.50;100913.69;5069449;28;20496;-72
2022/10/04 05:48:12;;;;;;;11.67;7.67;;;;;;;9.57;92.62;100910.69;5070668;28;20468;-72
2022/10/04 05:50:40;;;;;;;14.67;7.93;;;;;;;9.61;92.30;100906.81;5067592;28;20558;-74
2022/10/04 05:53:20;;;;;;;11.93;7.80;;;;;;;9.59;92.52;100902.56;5071304;28;20429;-77
2022/10/04 05:55:54;;;;;;;14.73;7.90;;;;;;;9.59;92.40;100905.25;5070556;28;20466;-74
2022/10/04 05:58:47;;;;;;;8.10;7.30;;;;;;;9.71;92.15;100911.44;5078480;28;20490;-75
2022/10/04 06:01:27;;;;;;;10.20;7.80;;;;;;;9.73;91.99;100915.69;5079726;28;20480;-73
2022/10/04 06:04:28;;;;;;;14.50;8.47;;;;;;;9.79;92.00;100917.91;5081398;28;20436;-76
2022/10/04 06:06:57;;;;;;;11.70;9.13;;;;;;;9.97;91.76;100907.59;5077390;28;20592;-75
2022/10/04 06:09:38;;;;;;;10.30;7.40;;;;;;;9.96;90.95;100899.69;5067393;28;20513;-75
2022/10/04 06:12:09;;;;;;;11.03;8.87;;;;;;;10.09;90.96;100904.94;5071695;28;20476;-76
2022/10/04 06:14:48;;;;;;;16.40;7.57;;;;;;;10.25;90.38;100896.53;5062217;28;20452;-76
2022/10/04 06:17:32;;;;;;;12.80;9.20;;;;;;;10.59;89.47;100904.53;5072866;28;20555;-76
2022/10/04 06:20:28;;;;;;;12.13;9.07;;;;;;;10.45;87.92;100911.00;5052815;28;20453;-76
2022/10/04 06:22:59;;;;;;;10.80;8.87;;;;;;;10.59;87.79;100913.44;5085087;28;20471;-76
2022/10/04 06:25:31;;;;;;;18.27;8.50;;;;;;;10.98;86.16;100923.66;5099853;28;20455;-76
2022/10/04 06:28:09;;;;;;;12.13;8.20;;;;;;;11.09;83.96;100919.13;5102428;28;20520;-76
2022/10/04 06:30:52;;;;;;;12.20;7.57;;;;;;;11.00;83.81;100917.19;5100961;28;20906;-76
2022/10/04 06:33:29;;;;;;;10.43;7.00;;;;;;;10.98;84.12;100910.28;5101958;28;20440;-75
2022/10/04 06:36:07;;;;;;;7.83;6.70;;;;;;;11.17;83.93;100914.97;5107265;28;20503;-74
2022/10/04 06:38:47;;;;;;;8.40;6.47;;;;;;;11.99;82.23;100908.91;5110711;28;20513;-75
2022/10/04 06:41:38;;;;;;;8.90;6.23;;;;;;;12.86;77.79;100900.25;5121766;28;20477;-76
2022/10/04 06:44:21;;;;;;;11.13;6.20;;;;;;;13.73;73.40;100903.91;5117913;28;20469;-75
2022/10/04 06:46:50;;;;;;;8.40;6.00;;;;;;;13.73;71.40;100901.22;5091808;28;20547;-76
2022/10/04 06:49:32;;;;;;;7.87;4.60;;;;;;;13.35;73.22;100900.31;5101166;28;20439;-74
2022/10/04 06:52:08;;;;;;;7.63;5.03;;;;;;;13.11;74.35;100895.34;5101233;28;20474;-75
2022/10/04 06:54:49;;;;;;;7.43;5.97;;;;;;;13.02;75.36;100893.50;5114381;28;20784;-76
2022/10/04 06:57:31;;;;;;;6.33;4.17;;;;;;;13.39;74.42;100898.19;5110732;28;20475;-75
2022/10/04 07:00:08;;;;;;;9.20;5.37;;;;;;;13.30;73.78;100891.81;5102052;28;20435;-76
2022/10/04 07:02:41;;;;;;;8.03;4.37;;;;;;;13.58;73.24;100898.16;5100468;28;20455;-76
2022/10/04 07:05:17;;;;;;;7.37;4.93;;;;;;;13.37;74.61;100890.28;5100735;28;20461;-75
2022/10/04 07:07:47;;;;;;;5.67;4.93;;;;;;;13.19;75.05;100895.47;5101220;28;20470;-75
2022/10/04 07:10:30;;;;;;;8.03;4.80;;;;;;;13.16;75.29;100895.78;5104496;28;20448;-76
2022/10/04 07:13:09;;;;;;;6.57;5.07;;;;;;;13.43;74.86;100897.75;5088679;28;20545;-76
2022/10/04 07:15:43;;;;;;;6.90;5.13;;;;;;;14.04;73.18;100893.75;5083399;28;20518;-75
2022/10/04 07:18:15;;;;;;;5.30;4.80;;;;;;;15.15;68.33;100891.00;5099673;28;20482;-75
2022/10/04 07:20:42;;;;;;;10.43;4.73;;;;;;;15.59;66.44;100898.28;5100558;28;20471;-75
2022/10/04 07:23:14;;;;;;;5.60;4.70;;;;;;;16.26;63.29;100898.50;5105487;28;20480;-76
2022/10/04 07:25:44;;;;;;;9.33;4.80;;;;;;;15.75;64.72;100909.19;5119883;28;20490;-76
2022/10/04 07:31:02;;;;;;;8.83;4.90;;;;;;;14.04;70.06;100912.59;5111367;28;20477;-75
2022/10/04 07:33:32;;;;;;;7.93;4.63;;;;;;;13.39;73.35;100915.16;5117015;28;20527;-76
2022/10/04 07:36:05;;;;;;;8.00;5.03;;;;;;;13.10;75.29;100913.28;5100426;28;20824;-75
2022/10/04 07:38:32;;;;;;;8.83;5.40;;;;;;;13.02;76.08;100917.66;5100572;28;20569;-76
2022/10/04 07:41:06;;;;;;;7.10;4.80;;;;;;;12.72;77.98;100914.91;5097692;28;20487;-75
2022/10/04 07:43:35;;;;;;;12.10;5.67;;;;;;;12.73;78.11;100913.09;5100976;28;20428;-76
2022/10/04 07:46:06;;;;;;;10.70;5.90;;;;;;;12.85;78.77;100916.53;5107234;28;20558;-76
2022/10/04 07:48:34;;;;;;;10.93;5.87;;;;;;;12.93;78.74;100913.97;5099741;28;21067;-76
2022/10/04 07:51:08;;;;;;;8.70;6.03;;;;;;;13.20;77.71;100926.72;5100217;28;20464;-76
2022/10/04 07:53:41;;;;;;;9.00;5.63;;;;;;;13.74;75.97;100921.75;5100081;28;20432;-77
2022/10/04 07:56:11;;;;;;;8.03;5.50;;;;;;;15.35;70.03;100921.31;5098962;28;20472;-76
2022/10/04 07:58:44;;;;;;;6.30;5.10;;;;;;;16.63;65.34;100921.63;5100197;28;20490;-76
2022/10/04 08:01:20;;;;;;;11.57;5.50;;;;;;;18.90;58.53;100913.56;5114893;28;21325;-76
2022/10/04 08:03:58;;;;;;;5.13;3.60;;;;;;;20.00;51.97;100908.75;5119866;28;20434;-76
2022/10/04 08:06:31;;;;;;;6.80;3.60;;;;;;;21.15;48.52;100921.72;5120530;28;20555;-75
2022/10/04 08:09:23;;;;;;;4.30;3.03;;;;;;;19.95;49.64;100922.91;5110654;28;20475;-76
2022/10/04 08:11:57;;;;;;;7.03;4.20;;;;;;;20.99;48.04;100920.09;5095549;28;20564;-76
2022/10/04 08:14:34;;;;;;;8.43;3.27;;;;;;;20.49;48.05;100930.75;5100351;28;20435;-76
2022/10/04 08:17:15;;;;;;;4.80;3.50;;;;;;;21.75;45.47;100930.44;5098061;28;21073;-77
2022/10/04 08:19:53;;;;;;;7.03;3.30;;;;;;;22.92;40.80;100919.75;5100364;28;20531;-76
2022/10/04 08:22:33;;;;;;;5.80;2.60;;;;;;;24.04;39.13;100920.91;5099990;28;20538;-76
2022/10/04 08:25:05;;;;;;;6.10;2.30;;;;;;;22.65;40.66;100924.28;5100087;28;20461;-76
2022/10/04 08:29:41;;;;;;;5.10;2.70;;;;;;;23.19;40.38;100922.56;5099798;28;20540;-75
2022/10/04 08:30:49;;;;;;;7.80;2.60;;;;;;;24.57;36.91;100924.56;5099087;28;20474;-77
2022/10/04 08:33:24;;;;;;;6.93;2.50;;;;;;;25.15;35.51;100920.84;5099575;28;20447;-75
2022/10/04 08:36:01;;;;;;;4.60;2.40;;;;;;;24.65;35.72;100917.97;5093197;28;21152;-77
2022/10/04 08:38:41;;;;;;;7.87;3.03;;;;;;;22.82;39.07;100920.13;5100315;28;20545;-75
2022/10/04 08:41:44;;;;;;;5.70;2.47;;;;;;;22.87;39.05;100914.91;5092276;28;20475;-76
2022/10/04 08:44:55;;;;;;;8.43;2.93;;;;;;;24.47;36.11;100911.31;5080066;28;20458;-76
2022/10/04 08:47:53;;;;;;;5.13;2.23;;;;;;;24.27;35.18;100905.91;5097885;28;20474;-77
2022/10/04 08:50:58;;;;;;;6.80;2.57;;;;;;;23.36;37.90;100899.28;5066984;28;20458;-74
2022/10/04 08:53:50;;;;;;;6.20;2.57;;;;;;;23.07;37.80;100900.50;5086034;28;20500;-76
2022/10/04 08:56:26;;;;;;;4.57;2.70;;;;;;;21.96;40.29;100893.28;5098586;28;20497;-77
2022/10/04 08:59:18;;;;;;;9.87;3.50;;;;;;;23.05;39.24;100891.66;5099721;28;20485;-76
2022/10/04 09:02:24;;;;;;;7.03;2.40;;;;;;;23.08;38.37;100899.47;5089150;28;20500;-77
2022/10/04 09:05:06;;;;;;;3.23;2.00;;;;;;;23.08;37.60;100881.22;5064285;28;20520;-74
2022/10/04 09:08:05;;;;;;;5.50;2.77;;;;;;;23.46;38.47;100894.25;5098572;28;20469;-76
2022/10/04 09:10:39;;;;;;;6.87;2.40;;;;;;;25.04;35.24;100886.84;5098295;28;20979;-77
2022/10/04 09:13:30;;;;;;;6.97;2.80;;;;;;;24.66;36.02;100892.34;5099079;28;20445;-77
2022/10/04 09:16:03;;;;;;;6.23;2.70;;;;;;;24.41;35.44;100893.88;5097042;28;20861;-78
2022/10/04 09:18:59;;;;;;;3.40;2.20;;;;;;;23.77;37.07;100891.94;5097407;28;20550;-75
2022/10/04 09:21:42;;;;;;;8.77;3.07;;;;;;;23.26;37.26;100883.34;5099135;28;20550;-76
2022/10/04 09:24:39;;;;;;;4.13;2.60;;;;;;;24.12;36.57;100891.69;5099339;28;20502;-76
2022/10/04 09:27:18;;;;;;;5.70;2.77;;;;;;;23.17;39.17;100870.94;5058685;28;20542;-77
2022/10/04 09:30:03;;;;;;;5.03;2.50;;;;;;;23.67;37.50;100875.97;5059083;28;20463;-75
2022/10/04 09:33:18;;;;;;;8.40;3.10;;;;;;;23.17;36.75;100873.66;5078472;28;20519;-76
2022/10/04 09:36:12;;;;;;;4.00;2.60;;;;;;;22.00;39.77;100873.66;5035439;28;20471;-76
2022/10/04 09:39:06;;;;;;;6.70;3.10;;;;;;;22.96;38.81;100860.19;5035713;28;20927;-76
2022/10/04 09:41:41;;;;;;;5.97;3.00;;;;;;;23.67;36.88;100857.69;5057778;28;20507;-74
2022/10/04 09:45:04;;;;;;;7.93;2.40;;;;;;;24.37;35.58;100854.38;5059149;28;20565;-77
2022/10/04 09:47:40;;;;;;;5.43;3.10;;;;;;;23.57;36.97;100848.25;5015067;28;20540;-75
2022/10/04 09:50:39;;;;;;;8.30;3.00;;;;;;;22.37;39.76;100852.47;5081624;28;20477;-75
2022/10/04 09:53:18;;;;;;;5.83;3.10;;;;;;;23.99;36.86;100852.41;5077030;28;20458;-77
2022/10/04 09:56:00;;;;;;;5.63;2.67;;;;;;;23.31;38.06;100850.81;5081631;28;20493;-76
2022/10/04 09:58:45;;;;;;;5.97;2.63;;;;;;;23.99;38.09;100841.50;5082431;28;20518;-76
2022/10/04 10:01:16;;;;;;;5.97;3.10;;;;;;;23.91;36.10;100838.16;5091718;28;20470;-77
2022/10/04 10:04:06;;;;;;;4.60;2.83;;;;;;;24.48;36.44;100833.72;5062532;28;20427;-77
2022/10/04 10:06:49;;;;;;;5.60;2.30;;;;;;;24.73;34.17;100832.97;5061929;28;20472;-76
2022/10/04 10:13:38;;;;;;;5.80;2.40;;;;;;;22.98;37.91;100822.66;5080882;28;20482;-73
2022/10/04 10:15:35;;;;;;;6.33;2.67;;;;;;;23.26;37.63;100820.59;5068933;28;20477;-76
2022/10/04 10:18:10;;;;;;;6.27;2.53;;;;;;;23.12;39.24;100817.03;5078065;28;20462;-76
2022/10/04 10:21:05;;;;;;;4.23;2.10;;;;;;;23.96;36.28;100820.06;5068559;28;20506;-75
2022/10/04 10:24:11;;;;;;;4.90;2.53;;;;;;;22.58;38.01;100814.41;5060668;28;20926;-73
2022/10/04 10:26:54;;;;;;;5.17;2.80;;;;;;;23.27;36.86;100819.53;5062745;28;20466;-76
2022/10/04 10:29:35;;;;;;;5.20;2.40;;;;;;;23.41;37.67;100823.09;5082094;28;20451;-74
2022/10/04 10:32:17;;;;;;;10.90;2.90;;;;;;;22.67;38.65;100827.66;5080287;28;20483;-74
2022/10/04 10:35:16;;;;;;;5.23;2.40;;;;;;;22.48;38.62;100821.09;5081499;28;20464;-73
2022/10/04 10:37:55;;;;;;;7.27;2.23;;;;;;;22.57;38.06;100802.66;5077689;28;20478;-76
2022/10/04 10:40:46;;;;;;;4.20;2.93;;;;;;;23.54;37.19;100811.34;5080740;28;20509;-76
2022/10/04 10:43:33;;;;;;;5.00;2.33;;;;;;;24.21;35.12;100813.88;5081307;28;20478;-77
2022/10/04 10:46:04;;;;;;;7.10;3.30;;;;;;;22.89;37.27;100822.00;5042357;28;20490;-76
2022/10/04 10:48:57;;;;;;;8.80;2.53;;;;;;;23.41;37.96;100820.34;5101543;28;20935;-74
2022/10/04 10:51:50;;;;;;;4.10;2.60;;;;;;;24.56;34.99;100824.44;5094122;28;20506;-77
2022/10/04 10:54:35;;;;;;;5.33;3.30;;;;;;;24.54;34.73;100821.94;5076787;28;20466;-74
2022/10/04 10:57:08;;;;;;;4.07;2.43;;;;;;;24.37;35.06;100818.84;5080252;28;20502;-76
2022/10/04 11:00:11;;;;;;;6.30;2.50;;;;;;;23.00;36.16;100815.09;5084966;28;20495;-73
2022/10/04 11:03:11;;;;;;;7.70;2.73;;;;;;;22.40;38.54;100815.00;5101070;28;20537;-76
2022/10/04 11:06:24;;;;;;;4.70;2.40;;;;;;;22.54;38.50;100809.34;5060272;28;20554;-76
2022/10/04 11:09:20;;;;;;;7.43;2.90;;;;;;;21.84;39.15;100810.50;5063288;28;20504;-75
2022/10/04 11:12:27;;;;;;;4.70;2.63;;;;;;;22.82;38.15;100800.19;5079366;28;20540;-75
2022/10/04 11:15:12;;;;;;;7.00;2.60;;;;;;;24.20;37.07;100801.25;5090681;28;20503;-74
2022/10/04 11:17:55;;;;;;;6.20;3.53;;;;;;;23.68;36.23;100804.78;5080281;28;20496;-74
2022/10/04 11:20:49;;;;;;;7.90;3.07;;;;;;;23.89;35.94;100802.88;5079964;28;20478;-77
2022/10/04 11:23:50;;;;;;;5.93;2.70;;;;;;;23.20;37.52;100802.31;5080690;28;20438;-76
2022/10/04 11:26:38;;;;;;;5.03;2.87;;;;;;;24.40;35.68;100798.44;5063623;28;20505;-74
2022/10/04 11:29:15;;;;;;;8.10;3.93;;;;;;;24.39;36.35;100796.75;5085463;28;20962;-76
2022/10/04 11:31:58;;;;;;;5.73;2.77;;;;;;;23.73;36.53;100792.38;5087184;28;20482;-74
2022/10/04 11:34:58;;;;;;;2.70;2.27;;;;;;;22.90;36.34;100801.88;5069650;28;20510;-75
2022/10/04 11:37:42;;;;;;;6.43;2.90;;;;;;;23.08;37.92;100795.81;5059474;28;20518;-76
2022/10/04 11:40:23;;;;;;;5.20;2.63;;;;;;;22.94;37.41;100784.88;5058633;28;20492;-75
2022/10/04 11:43:07;;;;;;;8.40;3.37;;;;;;;22.28;38.63;100782.88;5060055;28;20829;-76
2022/10/04 11:45:56;;;;;;;4.23;2.70;;;;;;;22.34;38.98;100783.94;5039550;28;20472;-75
2022/10/04 11:48:33;;;;;;;7.13;2.80;;;;;;;22.63;39.31;100795.53;5052842;28;20997;-77
2022/10/04 11:51:28;;;;;;;6.30;3.60;;;;;;;22.95;37.91;100780.28;5059526;28;20475;-75
2022/10/04 11:54:20;;;;;;;7.53;3.90;;;;;;;22.52;38.86;100776.03;5060064;28;20449;-75
2022/10/04 11:57:03;;;;;;;7.83;3.57;;;;;;;22.71;38.69;100768.09;5059342;28;20493;-74
2022/10/04 11:59:39;;;;;;;8.23;3.50;;;;;;;22.76;39.31;100768.31;5059131;28;20520;-75
2022/10/04 12:02:44;;;;;;;5.27;2.80;;;;;;;23.78;36.89;100757.94;5059513;28;20494;-75
2022/10/04 12:05:38;;;;;;;8.70;3.53;;;;;;;23.30;37.92;100761.81;5016827;28;20488;-75
2022/10/04 12:08:17;;;;;;;9.53;4.07;;;;;;;22.98;38.51;100747.13;5058957;28;20530;-75
2022/10/04 12:10:47;;;;;;;9.53;4.07;;;;;;;22.51;39.75;100751.72;5059059;28;20542;-74
2022/10/04 12:13:39;;;;;;;5.03;3.67;;;;;;;22.94;38.98;100760.34;5060010;28;20448;-75
2022/10/04 12:16:29;;;;;;;8.37;3.53;;;;;;;22.47;40.32;100751.28;5058361;28;20571;-75
2022/10/04 12:19:29;;;;;;;8.53;4.10;;;;;;;20.84;43.66;100746.19;5061127;28;20709;-74
2022/10/04 12:22:04;;;;;;;5.87;3.67;;;;;;;20.19;46.01;100748.03;5078493;28;20479;-75